18V weather

Platte Valley Airpark
Hudson, Colorado, United States

Public forecast

Using degrees Fahrenheit for public forecast. Weather courtesy of forecast.io.

METAR (pilot weather report)

Closest report is Denver International Airport, 14.4 nm (26.6 km) S. Retrieved 2019/04/23 23:53 UTC (48 minutes ago):

KDEN 232353Z 02007KT 10SM FEW090 FEW120 FEW220 18/03 A3001 RMK AO2 SLP121 T01780028 10178 20122 56011

TAF (pilot weather forecast)

Forecast is more than 12 hours old.

Closest forecast is Denver International Airport, 14.4 nm (26.6 km) S. Retrieved 2019/04/23 00:22 UTC (1 day ago):

TAF KDEN 232320Z 2400/2506 03007KT P6SM FEW090 FEW220 FM240200 15010KT P6SM FEW220 FM240500 21008KT P6SM SKC FM241400 24008KT P6SM SKC FM241800 02007KT P6SM SCT100 FM250000 33005KT P6SM BKN100